Terminal Aerodrome Forecast
Issued by NWS

Home | Current Version | Previous Version | Text Only | Print | Product List | Glossary On
Versions: 1 2 3 4 5 6 7 8 9 10 11 12 13 14
000
FTUS44 KMAF 272300
TAFCNM
TAF
KCNM 272332Z 2800/2824 14013KT P6SM SCT100
     FM280700 16008KT P6SM SCT050
      TEMPO 2810/2814 BKN008=

USA.gov is the U.S. government's official web portal to all federal, state and local government web resources and services.